Tres Rios, Brazil
Current Conditions -  °F | °C
As of 11:00 PM on Wednesday 26 Nov 2014 (Local Time) from SBGL Reporting Station
Overcast Overcast  
Wind Chill: 77°   Ceiling: 2000
Heat Index: 78°   Visibility: 6mi
Dew Point: 73°   Wind: 7mph
Humidity: 89%   Direction: 250°WSW
Pressure: 29.8"   Gusts: NA
Location:  22.11°S, 43.21°W
Report Text: SBGL 270100Z 25006KT 9999 FEW009 BKN020 OVC080 25/23 Q1009
Loading
Personal Weather Stations






























Interactive Weather Map New forecast layout! Learn more

10-Day Weather Forecast

Advertisements
Track Severe Weather on mobile